TimeCST,TemperatureF,Dew PointF,Humidity,Sea Level PressureIn,VisibilityMPH,Wind Direction,Wind SpeedMPH,Gust SpeedMPH,PrecipitationIn,Events,Conditions,WindDirDegrees,DateUTC
12:15 AM,42.3,17.8,37,30.32,10.0,South,4.6,-,N/A,,Clear,170,2012-11-14 06:15:00
12:35 AM,41.9,18.1,38,30.32,10.0,South,3.5,-,N/A,,Clear,170,2012-11-14 06:35:00
12:55 AM,41.5,18.3,39,30.33,10.0,Calm,Calm,-,N/A,,Clear,0,2012-11-14 06:55:00
1:15 AM,41.9,18.3,39,30.33,10.0,Calm,Calm,-,N/A,,Clear,0,2012-11-14 07:15:00
1:35 AM,40.6,18.1,40,30.33,10.0,Calm,Calm,-,N/A,,Clear,0,2012-11-14 07:35:00
1:55 AM,38.8,19.0,45,30.33,10.0,Calm,Calm,-,N/A,,Clear,0,2012-11-14 07:55:00
2:15 AM,37.8,19.2,47,30.33,10.0,Calm,Calm,-,N/A,,Clear,0,2012-11-14 08:15:00
2:35 AM,37.4,19.6,49,30.33,10.0,Calm,Calm,-,N/A,,Clear,0,2012-11-14 08:35:00
2:55 AM,37.4,18.9,47,30.33,10.0,Calm,Calm,-,N/A,,Clear,0,2012-11-14 08:55:00
3:15 AM,37.6,18.7,47,30.33,10.0,Calm,Calm,-,N/A,,Clear,0,2012-11-14 09:15:00
3:35 AM,37.2,20.5,51,30.32,10.0,Calm,Calm,-,N/A,,Clear,0,2012-11-14 09:35:00
3:55 AM,36.7,20.8,53,30.32,10.0,Calm,Calm,-,N/A,,Clear,0,2012-11-14 09:55:00
4:15 AM,37.0,19.6,49,30.31,10.0,Calm,Calm,-,N/A,,Clear,0,2012-11-14 10:15:00
4:35 AM,36.0,19.8,52,30.31,10.0,Calm,Calm,-,N/A,,Clear,0,2012-11-14 10:35:00
4:55 AM,35.8,19.4,51,30.32,10.0,Calm,Calm,-,N/A,,Clear,0,2012-11-14 10:55:00
5:15 AM,36.3,19.6,51,30.32,10.0,Calm,Calm,-,N/A,,Clear,0,2012-11-14 11:15:00
5:35 AM,36.3,20.1,52,30.33,10.0,Calm,Calm,-,N/A,,Clear,0,2012-11-14 11:35:00
5:55 AM,35.8,20.1,53,30.34,10.0,Calm,Calm,-,N/A,,Clear,0,2012-11-14 11:55:00
6:15 AM,35.6,19.4,52,30.34,10.0,Calm,Calm,-,N/A,,Clear,0,2012-11-14 12:15:00
6:35 AM,35.1,19.4,53,30.34,10.0,Calm,Calm,-,N/A,,Clear,0,2012-11-14 12:35:00
6:55 AM,34.9,19.4,53,30.34,10.0,Calm,Calm,-,N/A,,Clear,0,2012-11-14 12:55:00
7:15 AM,34.9,19.4,53,30.35,10.0,Calm,Calm,-,N/A,,Clear,0,2012-11-14 13:15:00
7:35 AM,35.2,19.4,53,30.35,10.0,Calm,Calm,-,N/A,,Clear,0,2012-11-14 13:35:00
7:55 AM,35.2,19.9,54,30.37,10.0,Calm,Calm,-,N/A,,Clear,0,2012-11-14 13:55:00
8:15 AM,36.5,21.7,55,30.37,10.0,Calm,Calm,-,N/A,,Clear,0,2012-11-14 14:15:00
8:35 AM,38.8,22.6,52,30.38,10.0,South,4.6,-,N/A,,Clear,170,2012-11-14 14:35:00
8:55 AM,41.4,24.1,50,30.39,10.0,Calm,Calm,-,N/A,,Clear,0,2012-11-14 14:55:00
9:15 AM,43.0,25.0,49,30.39,10.0,Calm,Calm,-,N/A,,Clear,0,2012-11-14 15:15:00
9:35 AM,44.1,25.7,49,30.39,10.0,South,3.5,-,N/A,,Clear,190,2012-11-14 15:35:00
9:55 AM,45.5,26.2,47,30.39,10.0,Calm,Calm,-,N/A,,Clear,0,2012-11-14 15:55:00
10:15 AM,46.9,26.4,45,30.39,10.0,Calm,Calm,-,N/A,,Clear,0,2012-11-14 16:15:00
10:35 AM,48.0,26.4,43,30.38,10.0,Calm,Calm,-,N/A,,Clear,0,2012-11-14 16:35:00
10:55 AM,49.8,27.0,41,30.38,10.0,Calm,Calm,-,N/A,,Clear,0,2012-11-14 16:55:00
11:15 AM,51.4,27.7,40,30.37,10.0,SSE,3.5,-,N/A,,Clear,150,2012-11-14 17:15:00
11:35 AM,52.7,27.5,38,30.37,10.0,South,3.5,-,N/A,,Clear,170,2012-11-14 17:35:00
11:55 AM,54.1,27.5,36,30.35,10.0,ESE,3.5,-,N/A,,Clear,120,2012-11-14 17:55:00
12:15 PM,55.8,27.3,34,30.34,10.0,SE,3.5,-,N/A,,Clear,140,2012-11-14 18:15:00
12:35 PM,56.7,27.3,33,30.33,10.0,ESE,3.5,-,N/A,,Clear,120,2012-11-14 18:35:00
12:55 PM,57.9,27.5,31,30.32,10.0,South,5.8,-,N/A,,Clear,170,2012-11-14 18:55:00
1:15 PM,59.0,27.7,30,30.31,10.0,Calm,Calm,-,N/A,,Clear,0,2012-11-14 19:15:00
1:35 PM,60.1,28.0,30,30.29,10.0,Calm,Calm,-,N/A,,Clear,0,2012-11-14 19:35:00
1:55 PM,60.6,27.9,29,30.28,10.0,ESE,6.9,-,N/A,,Clear,120,2012-11-14 19:55:00
2:15 PM,61.5,27.7,28,30.27,10.0,SSE,6.9,-,N/A,,Clear,160,2012-11-14 20:15:00
2:35 PM,62.2,27.7,27,30.27,10.0,SE,5.8,-,N/A,,Clear,130,2012-11-14 20:35:00
2:55 PM,62.4,27.7,27,30.26,10.0,SE,4.6,-,N/A,,Clear,140,2012-11-14 20:55:00
3:15 PM,62.8,27.5,26,30.26,10.0,SSE,3.5,-,N/A,,Clear,150,2012-11-14 21:15:00
3:35 PM,63.1,27.3,26,30.25,10.0,ESE,9.2,-,N/A,,Clear,110,2012-11-14 21:35:00
3:55 PM,63.1,27.5,26,30.25,10.0,SSE,5.8,-,N/A,,Clear,160,2012-11-14 21:55:00
4:15 PM,62.8,27.7,27,30.24,10.0,SE,6.9,-,N/A,,Clear,130,2012-11-14 22:15:00
4:35 PM,62.4,27.7,27,30.25,10.0,ESE,9.2,-,N/A,,Clear,120,2012-11-14 22:35:00
4:55 PM,62.1,27.9,27,30.25,10.0,SE,5.8,-,N/A,,Clear,130,2012-11-14 22:55:00
5:15 PM,61.5,28.2,28,30.24,10.0,SE,6.9,-,N/A,,Clear,140,2012-11-14 23:15:00
5:35 PM,61.3,28.4,29,30.24,10.0,SE,5.8,-,N/A,,Clear,130,2012-11-14 23:35:00
5:55 PM,60.3,28.4,30,30.24,10.0,SE,4.6,-,N/A,,Clear,130,2012-11-14 23:55:00
6:15 PM,59.2,28.6,31,30.23,10.0,SE,3.5,-,N/A,,Clear,130,2012-11-15 00:15:00
6:35 PM,58.1,28.9,33,30.23,10.0,ESE,5.8,-,N/A,,Clear,120,2012-11-15 00:35:00
6:55 PM,56.8,29.1,35,30.24,10.0,SE,4.6,-,N/A,,Clear,140,2012-11-15 00:55:00
7:15 PM,55.8,29.3,36,30.24,10.0,SE,4.6,-,N/A,,Clear,140,2012-11-15 01:15:00
7:35 PM,55.4,29.1,37,30.23,10.0,SE,8.1,-,N/A,,Clear,140,2012-11-15 01:35:00
7:55 PM,54.7,28.9,37,30.23,10.0,SE,6.9,-,N/A,,Clear,140,2012-11-15 01:55:00
8:15 PM,54.3,29.1,38,30.22,10.0,SE,5.8,-,N/A,,Clear,140,2012-11-15 02:15:00
8:35 PM,53.1,29.1,40,30.23,10.0,SSE,9.2,-,N/A,,Clear,160,2012-11-15 02:35:00
8:55 PM,52.7,29.3,41,30.24,10.0,South,6.9,-,N/A,,Clear,170,2012-11-15 02:55:00
9:15 PM,51.1,29.3,43,30.24,10.0,South,8.1,-,N/A,,Clear,170,2012-11-15 03:15:00
9:35 PM,50.4,29.1,44,30.24,10.0,South,8.1,-,N/A,,Clear,170,2012-11-15 03:35:00
9:55 PM,50.7,28.9,43,30.24,10.0,South,10.4,-,N/A,,Clear,170,2012-11-15 03:55:00
10:15 PM,50.0,29.7,46,30.23,10.0,South,9.2,-,N/A,,Clear,170,2012-11-15 04:15:00
10:35 PM,49.6,30.4,48,30.22,10.0,South,11.5,-,N/A,,Clear,170,2012-11-15 04:35:00
10:55 PM,49.1,30.7,49,30.23,10.0,South,11.5,-,N/A,,Clear,190,2012-11-15 04:55:00
11:15 PM,48.6,30.9,51,30.23,10.0,South,8.1,-,N/A,,Clear,180,2012-11-15 05:15:00
11:35 PM,47.7,30.9,52,30.22,10.0,South,9.2,-,N/A,,Clear,180,2012-11-15 05:35:00
11:55 PM,47.3,31.3,54,30.22,10.0,South,6.9,-,N/A,,Clear,180,2012-11-15 05:55:00